• Join FlightAware (Why Join?)
  • Login
  • US Flag 
12:35AM EST


 

Airport Tracker/Info


-or-


 

Live Flight TrackerFlight Track Log ✈ N877PM ✈ 05-Oct-2013 ✈ KGSO - KCHA

Flight Track Log - Related Links

Times and Time Zones

All times are in EDT time to prevent confusion due to time zone crossing. See the N877PM flight status page for this flight to view local times or setup timezone preferences in your user account.

Time Position Orientation Groundspeed Altitude Reporting Facility
EDT Latitude Longitude Course Direction KTS MPH feet Rate Location/Type
09:45AM 36.1669 -80.1964 320° Northwest 221 254 8,700  Level Atlanta Center
09:46AM 36.2086 -80.2533 312° West 221 254 10,300 1,500 Climbing Atlanta Center
09:47AM 36.0012 -80.4951 244° Southwest  Level Estimated
09:47AM 36.2478 -80.3133 309° West 221 254 11,800  Level Atlanta Center
09:48AM 35.9842 -80.5872 255° West  Level Estimated
09:48AM 36.2872 -80.3733 309° West 226 260 13,500  Level Atlanta Center
09:49AM 36.0432 -80.6475 320° Northwest  Level FlightAware Approximate
09:49AM 36.2911 -80.4350 274° West 214 246 15,000  Level Atlanta Center
09:50AM 36.2744 -80.5053 254° West 197 227 16,300 1,200 Climbing Atlanta Center
09:51AM 36.2558 -80.5858 254° West 207 238 17,500 1,020 Climbing Atlanta Center
09:52AM 36.2389 -80.6561 253° West 219 252 18,400 960 Climbing Atlanta Center
09:53AM 36.2222 -80.7264 254° West 219 252 19,500 1,020 Climbing Atlanta Center
09:54AM 36.2072 -80.7964 255° West 219 252 20,500 1,020 Climbing Atlanta Center
09:55AM 36.1883 -80.8692 252° West 219 252 21,600 1,080 Climbing Atlanta Center
09:56AM 36.1714 -80.9369 253° West 219 252 22,700 1,020 Climbing Atlanta Center
09:57AM 36.1544 -81.0094 254° West 224 258 23,700 900 Climbing Atlanta Center
09:58AM 36.1392 -81.0742 254° West 224 258 24,600 900 Climbing Atlanta Center
09:59AM 36.1203 -81.1494 253° West 224 258 25,500 660 Climbing Atlanta Center
10:00AM 36.1011 -81.2247 253° West 224 258 26,000 240 Climbing Atlanta Center
10:01AM 36.0822 -81.3153 256° West 247 284 26,000  Level Atlanta Center
10:02AM 36.0572 -81.4111 252° West 283 326 26,000  Level Atlanta Center
10:03AM 36.0322 -81.5147 253° West 304 350 26,000  Level Atlanta Center
10:04AM 36.0072 -81.6156 253° West 309 356 26,000  Level Atlanta Center
10:05AM 35.9781 -81.7192 251° West 314 361 26,000  Level Atlanta Center
10:06AM 35.9528 -81.8225 253° West 320 368 26,000  Level Atlanta Center
10:07AM 35.9253 -81.9283 252° West 327 376 26,000  Level Atlanta Center
10:08AM 35.8958 -82.0394 252° West 322 371 26,000  Level Atlanta Center
10:09AM 35.8728 -82.1475 255° West 327 376 26,000  Level Atlanta Center
10:10AM 35.8408 -82.2456 248° West 318 366 26,000  Level Atlanta Center
10:11AM 35.8150 -82.3486 253° West 318 366 26,000  Level Atlanta Center
10:12AM 35.7894 -82.4542 253° West 323 372 26,000  Level Atlanta Center
10:13AM 35.7614 -82.5569 251° West 323 372 26,000  Level Atlanta Center
10:14AM 35.7356 -82.6597 253° West 318 366 26,000  Level Atlanta Center
10:15AM 35.7075 -82.7625 251° West 324 373 26,000  Level Atlanta Center
10:16AM 35.6814 -82.8678 253° West 324 373 26,000  Level Atlanta Center
10:17AM 35.6531 -82.9706 251° West 324 373 26,000 -480 Level Atlanta Center
10:18AM 35.6247 -83.0781 252° West 330 380 25,100 -1,020 Descending Atlanta Center
10:19AM 35.5922 -83.1908 251° West 335 386 24,000 -1,080 Descending Atlanta Center
10:20AM 35.5658 -83.3061 254° West 347 399 23,000 -1,080 Descending Atlanta Center
10:21AM 35.5353 -83.4161 251° West 347 399 21,900 -1,080 Descending Atlanta Center
10:22AM 35.5044 -83.5286 251° West 347 399 20,900 -960 Descending Atlanta Center
10:23AM 35.4736 -83.6383 251° West 347 399 20,000 -600 Descending Atlanta Center
10:24AM 35.4467 -83.7406 252° West 337 388 19,800 -720 Descending Atlanta Center
10:25AM 35.4178 -83.8475 252° West 327 376 18,600 -900 Descending Atlanta Center
10:26AM 35.3864 -83.9522 250° West 327 376 18,000 -360 Descending Atlanta Center
10:27AM 35.3614 -84.0542 253° West 327 376 17,900 -540 Descending Atlanta Center
10:28AM 35.3303 -84.1558 249° West 322 371 17,000 -1,080 Descending Atlanta Center
10:29AM 35.3008 -84.2628 251° West 327 376 15,800 -1,200 Descending Atlanta Center
10:30AM 35.2714 -84.3694 251° West 327 376 14,600 -1,200 Descending Atlanta Center
10:31AM 35.2439 -84.4786 253° West 332 382 13,500 -1,200 Descending Atlanta Center
10:32AM 35.2122 -84.5828 250° West 332 382 12,300 -1,260 Descending Atlanta Center
10:33AM 35.1992 -84.6869 261° West 320 368 11,000 -1,320 Descending Atlanta Center
10:34AM 35.1881 -84.7858 262° West 309 356 9,700 -1,500 Descending Atlanta Center
10:35AM 35.1833 -84.8825 267° West 303 349 8,100 -1,680 Descending Atlanta Center
10:36AM 35.1764 -84.9714 265° West 282 325 6,400 -1,440 Descending Atlanta Center
10:37AM 35.1739 -85.0450 268° West 267 307 5,300 -840 Descending Atlanta Center
10:38AM 35.1794 -85.1186 275° West 241 277 4,800 -780 Descending Atlanta Center
10:39AM 35.1561 -85.1592 235° Southwest 169 194 3,800 -1,020 Descending Atlanta Center
10:41AM 35.0503 -85.1980 253° West  Level Estimated
10:48AM 35.0333 -85.2000 253° West  Level FlightAware Approximate
10:49AM 35.0352 -85.2036 253° West  Level Estimated
10:50AM 35.0333 -85.2000 253° West  Level FlightAware Approximate